sensor_id;sensor_type;location;lat;lon;timestamp;P1;durP1;ratioP1;P2;durP2;ratioP2
15218;SDS011;15623;53.986;11.676;2023-04-25T00:04:23;7.03;;;6.30;;
15218;SDS011;15623;53.986;11.676;2023-04-25T00:06:56;6.13;;;5.57;;
15218;SDS011;15623;53.986;11.676;2023-04-25T00:09:28;6.20;;;5.77;;
15218;SDS011;15623;53.986;11.676;2023-04-25T00:12:04;6.50;;;6.00;;
15218;SDS011;15623;53.986;11.676;2023-04-25T00:14:31;8.63;;;6.20;;
15218;SDS011;15623;53.986;11.676;2023-04-25T00:17:01;6.30;;;5.63;;
15218;SDS011;15623;53.986;11.676;2023-04-25T00:19:31;6.87;;;6.17;;
15218;SDS011;15623;53.986;11.676;2023-04-25T00:21:59;6.33;;;5.73;;
15218;SDS011;15623;53.986;11.676;2023-04-25T00:24:29;7.37;;;5.47;;
15218;SDS011;15623;53.986;11.676;2023-04-25T00:26:56;7.87;;;6.13;;
15218;SDS011;15623;53.986;11.676;2023-04-25T00:29:35;6.60;;;5.93;;
15218;SDS011;15623;53.986;11.676;2023-04-25T00:32:02;8.33;;;5.73;;
15218;SDS011;15623;53.986;11.676;2023-04-25T00:39:42;5.97;;;5.43;;
15218;SDS011;15623;53.986;11.676;2023-04-25T00:42:12;6.20;;;5.70;;
15218;SDS011;15623;53.986;11.676;2023-04-25T00:44:47;7.00;;;5.80;;
15218;SDS011;15623;53.986;11.676;2023-04-25T00:47:28;7.43;;;5.57;;
15218;SDS011;15623;53.986;11.676;2023-04-25T00:50:03;6.10;;;5.60;;
15218;SDS011;15623;53.986;11.676;2023-04-25T00:52:32;6.50;;;5.83;;
15218;SDS011;15623;53.986;11.676;2023-04-25T00:55:01;6.30;;;5.70;;
15218;SDS011;15623;53.986;11.676;2023-04-25T00:57:30;8.70;;;6.30;;
15218;SDS011;15623;53.986;11.676;2023-04-25T01:00:02;6.40;;;5.50;;
15218;SDS011;15623;53.986;11.676;2023-04-25T01:02:32;6.10;;;5.47;;
15218;SDS011;15623;53.986;11.676;2023-04-25T01:05:00;5.70;;;5.17;;
15218;SDS011;15623;53.986;11.676;2023-04-25T01:07:36;7.43;;;5.80;;
15218;SDS011;15623;53.986;11.676;2023-04-25T01:10:06;9.70;;;5.33;;
15218;SDS011;15623;53.986;11.676;2023-04-25T01:12:42;10.10;;;5.47;;
15218;SDS011;15623;53.986;11.676;2023-04-25T01:15:16;7.77;;;5.40;;
15218;SDS011;15623;53.986;11.676;2023-04-25T01:20:21;5.50;;;4.93;;
15218;SDS011;15623;53.986;11.676;2023-04-25T01:22:54;10.43;;;5.43;;
15218;SDS011;15623;53.986;11.676;2023-04-25T01:28:08;6.27;;;5.00;;
15218;SDS011;15623;53.986;11.676;2023-04-25T01:30:40;9.30;;;5.00;;
15218;SDS011;15623;53.986;11.676;2023-04-25T01:33:18;8.17;;;4.97;;
15218;SDS011;15623;53.986;11.676;2023-04-25T01:35:47;8.47;;;5.40;;
15218;SDS011;15623;53.986;11.676;2023-04-25T01:38:16;8.97;;;5.23;;
15218;SDS011;15623;53.986;11.676;2023-04-25T01:40:45;6.43;;;4.40;;
15218;SDS011;15623;53.986;11.676;2023-04-25T01:43:22;7.10;;;5.10;;
15218;SDS011;15623;53.986;11.676;2023-04-25T01:45:50;9.13;;;5.43;;
15218;SDS011;15623;53.986;11.676;2023-04-25T01:48:17;7.17;;;4.53;;
15218;SDS011;15623;53.986;11.676;2023-04-25T01:53:35;7.67;;;4.83;;
15218;SDS011;15623;53.986;11.676;2023-04-25T01:56:03;8.90;;;5.07;;
15218;SDS011;15623;53.986;11.676;2023-04-25T01:58:32;6.90;;;5.17;;
15218;SDS011;15623;53.986;11.676;2023-04-25T02:00:59;10.50;;;4.57;;
15218;SDS011;15623;53.986;11.676;2023-04-25T02:03:32;11.37;;;3.90;;
15218;SDS011;15623;53.986;11.676;2023-04-25T02:06:07;8.57;;;4.00;;
15218;SDS011;15623;53.986;11.676;2023-04-25T02:08:50;9.40;;;4.33;;
15218;SDS011;15623;53.986;11.676;2023-04-25T02:11:19;12.83;;;3.77;;
15218;SDS011;15623;53.986;11.676;2023-04-25T02:16:37;7.90;;;3.70;;
15218;SDS011;15623;53.986;11.676;2023-04-25T02:19:19;15.77;;;4.50;;
15218;SDS011;15623;53.986;11.676;2023-04-25T02:21:53;12.13;;;3.27;;
15218;SDS011;15623;53.986;11.676;2023-04-25T02:24:31;12.30;;;3.83;;
15218;SDS011;15623;53.986;11.676;2023-04-25T02:29:55;14.77;;;3.73;;
15218;SDS011;15623;53.986;11.676;2023-04-25T02:32:28;12.20;;;3.90;;
15218;SDS011;15623;53.986;11.676;2023-04-25T02:37:42;15.93;;;4.03;;
15218;SDS011;15623;53.986;11.676;2023-04-25T02:40:11;15.27;;;3.87;;
15218;SDS011;15623;53.986;11.676;2023-04-25T02:45:44;15.40;;;4.13;;
15218;SDS011;15623;53.986;11.676;2023-04-25T02:48:12;12.07;;;3.90;;
15218;SDS011;15623;53.986;11.676;2023-04-25T02:50:44;16.30;;;4.00;;
15218;SDS011;15623;53.986;11.676;2023-04-25T02:53:11;15.00;;;4.00;;
15218;SDS011;15623;53.986;11.676;2023-04-25T02:58:11;12.37;;;3.90;;
15218;SDS011;15623;53.986;11.676;2023-04-25T03:00:44;14.23;;;3.67;;
15218;SDS011;15623;53.986;11.676;2023-04-25T03:03:20;12.87;;;3.80;;
15218;SDS011;15623;53.986;11.676;2023-04-25T03:05:48;12.00;;;3.50;;
15218;SDS011;15623;53.986;11.676;2023-04-25T03:08:16;14.43;;;4.00;;
15218;SDS011;15623;53.986;11.676;2023-04-25T03:10:51;17.50;;;4.23;;
15218;SDS011;15623;53.986;11.676;2023-04-25T03:13:29;15.60;;;4.37;;
15218;SDS011;15623;53.986;11.676;2023-04-25T03:16:04;14.50;;;3.63;;
15218;SDS011;15623;53.986;11.676;2023-04-25T03:18:31;16.63;;;4.30;;
15218;SDS011;15623;53.986;11.676;2023-04-25T03:21:10;18.73;;;4.20;;
15218;SDS011;15623;53.986;11.676;2023-04-25T03:23:40;14.10;;;3.80;;
15218;SDS011;15623;53.986;11.676;2023-04-25T03:26:14;12.90;;;4.07;;
15218;SDS011;15623;53.986;11.676;2023-04-25T03:28:43;15.87;;;4.50;;
15218;SDS011;15623;53.986;11.676;2023-04-25T03:31:11;12.50;;;3.67;;
15218;SDS011;15623;53.986;11.676;2023-04-25T03:33:47;15.73;;;4.27;;
15218;SDS011;15623;53.986;11.676;2023-04-25T03:36:20;17.60;;;4.87;;
15218;SDS011;15623;53.986;11.676;2023-04-25T03:38:52;16.03;;;4.37;;
15218;SDS011;15623;53.986;11.676;2023-04-25T03:41:20;20.07;;;4.20;;
15218;SDS011;15623;53.986;11.676;2023-04-25T03:46:35;10.60;;;3.63;;
15218;SDS011;15623;53.986;11.676;2023-04-25T03:54:39;18.43;;;4.07;;
15218;SDS011;15623;53.986;11.676;2023-04-25T03:57:08;13.47;;;3.90;;
15218;SDS011;15623;53.986;11.676;2023-04-25T04:05:09;17.93;;;4.67;;
15218;SDS011;15623;53.986;11.676;2023-04-25T04:15:43;14.93;;;4.60;;
15218;SDS011;15623;53.986;11.676;2023-04-25T04:20:53;13.63;;;3.77;;
15218;SDS011;15623;53.986;11.676;2023-04-25T04:23:27;17.27;;;3.97;;
15218;SDS011;15623;53.986;11.676;2023-04-25T04:26:10;23.50;;;4.37;;
15218;SDS011;15623;53.986;11.676;2023-04-25T04:28:39;21.70;;;4.00;;
15218;SDS011;15623;53.986;11.676;2023-04-25T04:31:10;18.37;;;4.40;;
15218;SDS011;15623;53.986;11.676;2023-04-25T04:33:38;16.33;;;3.87;;
15218;SDS011;15623;53.986;11.676;2023-04-25T04:36:17;15.17;;;4.00;;
15218;SDS011;15623;53.986;11.676;2023-04-25T04:38:54;15.20;;;4.90;;
15218;SDS011;15623;53.986;11.676;2023-04-25T04:41:30;20.03;;;4.37;;
15218;SDS011;15623;53.986;11.676;2023-04-25T04:43:59;20.90;;;4.10;;
15218;SDS011;15623;53.986;11.676;2023-04-25T04:46:37;16.70;;;4.40;;
15218;SDS011;15623;53.986;11.676;2023-04-25T04:49:13;12.83;;;3.73;;
15218;SDS011;15623;53.986;11.676;2023-04-25T04:51:42;18.40;;;3.77;;
15218;SDS011;15623;53.986;11.676;2023-04-25T04:54:10;18.27;;;4.17;;
15218;SDS011;15623;53.986;11.676;2023-04-25T04:56:37;19.97;;;3.57;;
15218;SDS011;15623;53.986;11.676;2023-04-25T05:04:15;13.13;;;3.63;;
15218;SDS011;15623;53.986;11.676;2023-04-25T05:06:48;17.53;;;3.87;;
15218;SDS011;15623;53.986;11.676;2023-04-25T05:09:39;20.90;;;4.53;;
15218;SDS011;15623;53.986;11.676;2023-04-25T05:12:36;16.87;;;4.17;;
15218;SDS011;15623;53.986;11.676;2023-04-25T05:15:07;18.47;;;4.50;;
15218;SDS011;15623;53.986;11.676;2023-04-25T05:29:27;15.80;;;3.80;;
15218;SDS011;15623;53.986;11.676;2023-04-25T05:35:02;21.20;;;3.77;;
15218;SDS011;15623;53.986;11.676;2023-04-25T05:37:32;12.50;;;3.67;;
15218;SDS011;15623;53.986;11.676;2023-04-25T05:40:18;14.17;;;3.80;;
15218;SDS011;15623;53.986;11.676;2023-04-25T05:42:51;15.40;;;3.83;;
15218;SDS011;15623;53.986;11.676;2023-04-25T05:45:39;12.73;;;3.80;;
15218;SDS011;15623;53.986;11.676;2023-04-25T05:51:35;16.37;;;4.30;;
15218;SDS011;15623;53.986;11.676;2023-04-25T06:42:39;13.77;;;3.83;;
15218;SDS011;15623;53.986;11.676;2023-04-25T06:50:20;11.73;;;3.37;;
15218;SDS011;15623;53.986;11.676;2023-04-25T07:01:32;11.87;;;3.40;;
15218;SDS011;15623;53.986;11.676;2023-04-25T07:10:01;11.37;;;2.80;;
15218;SDS011;15623;53.986;11.676;2023-04-25T07:12:40;10.33;;;2.70;;
15218;SDS011;15623;53.986;11.676;2023-04-25T07:18:25;13.43;;;2.80;;
15218;SDS011;15623;53.986;11.676;2023-04-25T07:23:28;11.43;;;2.90;;
15218;SDS011;15623;53.986;11.676;2023-04-25T07:26:05;8.53;;;3.10;;
15218;SDS011;15623;53.986;11.676;2023-04-25T07:28:35;15.60;;;3.40;;
15218;SDS011;15623;53.986;11.676;2023-04-25T07:31:04;10.17;;;2.90;;
15218;SDS011;15623;53.986;11.676;2023-04-25T07:36:19;13.23;;;3.57;;
15218;SDS011;15623;53.986;11.676;2023-04-25T07:39:00;9.80;;;2.93;;
15218;SDS011;15623;53.986;11.676;2023-04-25T07:41:31;16.37;;;3.33;;
15218;SDS011;15623;53.986;11.676;2023-04-25T07:44:11;9.27;;;3.30;;
15218;SDS011;15623;53.986;11.676;2023-04-25T07:49:52;10.23;;;2.93;;
15218;SDS011;15623;53.986;11.676;2023-04-25T07:52:22;13.53;;;3.10;;
15218;SDS011;15623;53.986;11.676;2023-04-25T08:00:53;13.53;;;3.27;;
15218;SDS011;15623;53.986;11.676;2023-04-25T08:06:26;13.00;;;3.43;;
15218;SDS011;15623;53.986;11.676;2023-04-25T08:08:55;11.30;;;3.27;;
15218;SDS011;15623;53.986;11.676;2023-04-25T08:11:37;15.63;;;3.50;;
15218;SDS011;15623;53.986;11.676;2023-04-25T08:17:18;11.83;;;3.77;;
15218;SDS011;15623;53.986;11.676;2023-04-25T08:20:01;9.00;;;3.07;;
15218;SDS011;15623;53.986;11.676;2023-04-25T08:31:26;8.93;;;3.17;;
15218;SDS011;15623;53.986;11.676;2023-04-25T08:34:01;7.67;;;2.73;;
15218;SDS011;15623;53.986;11.676;2023-04-25T08:36:30;11.10;;;3.37;;
15218;SDS011;15623;53.986;11.676;2023-04-25T08:39:21;10.03;;;3.00;;
15218;SDS011;15623;53.986;11.676;2023-04-25T08:44:41;8.53;;;2.93;;
15218;SDS011;15623;53.986;11.676;2023-04-25T09:12:00;10.23;;;3.30;;
15218;SDS011;15623;53.986;11.676;2023-04-25T09:17:34;10.50;;;2.67;;
15218;SDS011;15623;53.986;11.676;2023-04-25T09:51:07;11.53;;;2.67;;
15218;SDS011;15623;53.986;11.676;2023-04-25T09:53:38;9.50;;;2.37;;
15218;SDS011;15623;53.986;11.676;2023-04-25T09:56:08;6.37;;;2.17;;
15218;SDS011;15623;53.986;11.676;2023-04-25T09:58:40;5.35;;;2.20;;
15218;SDS011;15623;53.986;11.676;2023-04-25T10:01:09;6.50;;;2.80;;
15218;SDS011;15623;53.986;11.676;2023-04-25T10:03:38;7.88;;;2.17;;
15218;SDS011;15623;53.986;11.676;2023-04-25T10:06:15;6.93;;;2.38;;
15218;SDS011;15623;53.986;11.676;2023-04-25T10:08:49;7.85;;;2.35;;
15218;SDS011;15623;53.986;11.676;2023-04-25T10:11:20;8.40;;;2.33;;
15218;SDS011;15623;53.986;11.676;2023-04-25T10:13:50;7.53;;;1.90;;
15218;SDS011;15623;53.986;11.676;2023-04-25T10:16:32;8.63;;;2.40;;
15218;SDS011;15623;53.986;11.676;2023-04-25T10:19:01;7.50;;;2.20;;
15218;SDS011;15623;53.986;11.676;2023-04-25T10:32:47;9.53;;;2.40;;
15218;SDS011;15623;53.986;11.676;2023-04-25T10:35:17;6.53;;;2.00;;
15218;SDS011;15623;53.986;11.676;2023-04-25T10:38:00;5.90;;;2.00;;
15218;SDS011;15623;53.986;11.676;2023-04-25T10:40:31;8.37;;;2.67;;
15218;SDS011;15623;53.986;11.676;2023-04-25T10:45:51;9.57;;;2.80;;
15218;SDS011;15623;53.986;11.676;2023-04-25T10:48:26;8.83;;;1.87;;
15218;SDS011;15623;53.986;11.676;2023-04-25T10:53:58;8.97;;;2.07;;
15218;SDS011;15623;53.986;11.676;2023-04-25T10:56:30;13.23;;;2.43;;
15218;SDS011;15623;53.986;11.676;2023-04-25T11:02:23;2.83;;;1.73;;
15218;SDS011;15623;53.986;11.676;2023-04-25T11:20:03;6.10;;;1.90;;
15218;SDS011;15623;53.986;11.676;2023-04-25T11:28:29;7.50;;;2.00;;
15218;SDS011;15623;53.986;11.676;2023-04-25T11:30:58;7.07;;;2.07;;
15218;SDS011;15623;53.986;11.676;2023-04-25T11:33:30;7.17;;;2.13;;
15218;SDS011;15623;53.986;11.676;2023-04-25T11:36:09;6.23;;;2.07;;
15218;SDS011;15623;53.986;11.676;2023-04-25T11:41:50;5.93;;;2.13;;
15218;SDS011;15623;53.986;11.676;2023-04-25T11:44:50;6.50;;;2.22;;
15218;SDS011;15623;53.986;11.676;2023-04-25T11:47:19;6.60;;;1.90;;
15218;SDS011;15623;53.986;11.676;2023-04-25T11:49:48;5.00;;;1.70;;
15218;SDS011;15623;53.986;11.676;2023-04-25T11:52:18;5.55;;;1.70;;
15218;SDS011;15623;53.986;11.676;2023-04-25T11:58:06;6.18;;;1.77;;
15218;SDS011;15623;53.986;11.676;2023-04-25T12:39:02;6.10;;;1.77;;
15218;SDS011;15623;53.986;11.676;2023-04-25T12:47:12;7.38;;;1.98;;
15218;SDS011;15623;53.986;11.676;2023-04-25T12:49:39;3.30;;;1.77;;
15218;SDS011;15623;53.986;11.676;2023-04-25T12:58:03;6.47;;;1.70;;
15218;SDS011;15623;53.986;11.676;2023-04-25T13:03:30;6.18;;;1.52;;
15218;SDS011;15623;53.986;11.676;2023-04-25T13:11:58;4.60;;;1.70;;
15218;SDS011;15623;53.986;11.676;2023-04-25T13:14:33;2.73;;;1.57;;
15218;SDS011;15623;53.986;11.676;2023-04-25T13:17:02;4.43;;;1.60;;
15218;SDS011;15623;53.986;11.676;2023-04-25T13:22:15;5.15;;;1.60;;
15218;SDS011;15623;53.986;11.676;2023-04-25T13:25:16;3.50;;;1.60;;
15218;SDS011;15623;53.986;11.676;2023-04-25T13:27:48;6.13;;;1.55;;
15218;SDS011;15623;53.986;11.676;2023-04-25T13:30:17;4.22;;;1.40;;
15218;SDS011;15623;53.986;11.676;2023-04-25T13:33:00;5.10;;;1.23;;
15218;SDS011;15623;53.986;11.676;2023-04-25T13:38:36;4.68;;;1.80;;
15218;SDS011;15623;53.986;11.676;2023-04-25T13:41:20;4.65;;;1.70;;
15218;SDS011;15623;53.986;11.676;2023-04-25T13:43:59;4.78;;;1.55;;
15218;SDS011;15623;53.986;11.676;2023-04-25T13:46:34;7.70;;;1.98;;
15218;SDS011;15623;53.986;11.676;2023-04-25T13:49:16;3.73;;;1.40;;
15218;SDS011;15623;53.986;11.676;2023-04-25T14:05:40;4.07;;;1.60;;
15218;SDS011;15623;53.986;11.676;2023-04-25T14:08:11;6.63;;;1.70;;
15218;SDS011;15623;53.986;11.676;2023-04-25T14:18:56;4.40;;;1.40;;
15218;SDS011;15623;53.986;11.676;2023-04-25T14:39:17;9.90;;;2.53;;
15218;SDS011;15623;53.986;11.676;2023-04-25T14:41:49;7.33;;;1.67;;
15218;SDS011;15623;53.986;11.676;2023-04-25T14:44:27;7.93;;;1.80;;
15218;SDS011;15623;53.986;11.676;2023-04-25T14:47:23;7.03;;;1.70;;
15218;SDS011;15623;53.986;11.676;2023-04-25T14:50:08;4.90;;;2.07;;
15218;SDS011;15623;53.986;11.676;2023-04-25T14:52:49;5.47;;;1.90;;
15218;SDS011;15623;53.986;11.676;2023-04-25T14:58:27;6.37;;;1.67;;
15218;SDS011;15623;53.986;11.676;2023-04-25T15:09:13;7.13;;;1.77;;
15218;SDS011;15623;53.986;11.676;2023-04-25T15:11:53;9.93;;;1.73;;
15218;SDS011;15623;53.986;11.676;2023-04-25T15:16:56;7.53;;;1.67;;
15218;SDS011;15623;53.986;11.676;2023-04-25T15:21:55;5.40;;;1.93;;
15218;SDS011;15623;53.986;11.676;2023-04-25T15:24:25;6.20;;;1.73;;
15218;SDS011;15623;53.986;11.676;2023-04-25T15:35:30;7.33;;;1.80;;
15218;SDS011;15623;53.986;11.676;2023-04-25T15:40:37;7.07;;;2.00;;
15218;SDS011;15623;53.986;11.676;2023-04-25T15:43:09;9.13;;;2.63;;
15218;SDS011;15623;53.986;11.676;2023-04-25T15:45:53;5.97;;;1.83;;
15218;SDS011;15623;53.986;11.676;2023-04-25T15:48:21;6.97;;;1.87;;
15218;SDS011;15623;53.986;11.676;2023-04-25T15:51:03;3.50;;;1.67;;
15218;SDS011;15623;53.986;11.676;2023-04-25T15:53:31;5.77;;;1.83;;
15218;SDS011;15623;53.986;11.676;2023-04-25T15:56:01;6.17;;;1.70;;
15218;SDS011;15623;53.986;11.676;2023-04-25T15:58:29;12.67;;;2.00;;
15218;SDS011;15623;53.986;11.676;2023-04-25T16:00:59;5.83;;;1.50;;
15218;SDS011;15623;53.986;11.676;2023-04-25T16:03:47;8.20;;;2.20;;
15218;SDS011;15623;53.986;11.676;2023-04-25T16:06:41;7.50;;;2.10;;
15218;SDS011;15623;53.986;11.676;2023-04-25T16:09:09;7.63;;;2.20;;
15218;SDS011;15623;53.986;11.676;2023-04-25T16:11:36;6.30;;;2.03;;
15218;SDS011;15623;53.986;11.676;2023-04-25T16:14:07;9.10;;;2.17;;
15218;SDS011;15623;53.986;11.676;2023-04-25T16:19:10;6.43;;;2.10;;
15218;SDS011;15623;53.986;11.676;2023-04-25T16:21:38;5.33;;;1.80;;
15218;SDS011;15623;53.986;11.676;2023-04-25T16:24:11;5.43;;;2.00;;
15218;SDS011;15623;53.986;11.676;2023-04-25T16:26:39;6.47;;;1.70;;
15218;SDS011;15623;53.986;11.676;2023-04-25T16:31:56;9.10;;;3.60;;
15218;SDS011;15623;53.986;11.676;2023-04-25T16:34:33;6.03;;;1.80;;
15218;SDS011;15623;53.986;11.676;2023-04-25T16:37:07;7.37;;;2.13;;
15218;SDS011;15623;53.986;11.676;2023-04-25T16:39:41;7.13;;;2.23;;
15218;SDS011;15623;53.986;11.676;2023-04-25T16:42:12;8.40;;;2.03;;
15218;SDS011;15623;53.986;11.676;2023-04-25T16:44:40;9.93;;;2.30;;
15218;SDS011;15623;53.986;11.676;2023-04-25T16:47:08;9.83;;;2.03;;
15218;SDS011;15623;53.986;11.676;2023-04-25T16:49:42;6.67;;;2.10;;
15218;SDS011;15623;53.986;11.676;2023-04-25T16:52:15;6.33;;;2.20;;
15218;SDS011;15623;53.986;11.676;2023-04-25T16:54:51;8.23;;;2.03;;
15218;SDS011;15623;53.986;11.676;2023-04-25T16:57:18;10.13;;;1.70;;
15218;SDS011;15623;53.986;11.676;2023-04-25T17:00:06;5.87;;;1.80;;
15218;SDS011;15623;53.986;11.676;2023-04-25T17:02:39;9.07;;;2.30;;
15218;SDS011;15623;53.986;11.676;2023-04-25T17:05:12;10.63;;;1.90;;
15218;SDS011;15623;53.986;11.676;2023-04-25T17:07:41;7.60;;;1.50;;
15218;SDS011;15623;53.986;11.676;2023-04-25T17:10:20;10.43;;;1.93;;
15218;SDS011;15623;53.986;11.676;2023-04-25T17:12:50;7.37;;;2.10;;
15218;SDS011;15623;53.986;11.676;2023-04-25T17:15:19;7.13;;;1.80;;
15218;SDS011;15623;53.986;11.676;2023-04-25T17:17:54;6.37;;;2.00;;
15218;SDS011;15623;53.986;11.676;2023-04-25T17:20:25;5.30;;;2.17;;
15218;SDS011;15623;53.986;11.676;2023-04-25T17:22:53;7.47;;;2.00;;
15218;SDS011;15623;53.986;11.676;2023-04-25T17:25:24;7.67;;;1.93;;
15218;SDS011;15623;53.986;11.676;2023-04-25T17:30:57;8.10;;;1.83;;
15218;SDS011;15623;53.986;11.676;2023-04-25T17:33:35;9.57;;;1.90;;
15218;SDS011;15623;53.986;11.676;2023-04-25T17:44:01;9.20;;;1.67;;
15218;SDS011;15623;53.986;11.676;2023-04-25T17:57:48;5.07;;;1.70;;
15218;SDS011;15623;53.986;11.676;2023-04-25T18:00:37;5.10;;;1.80;;
15218;SDS011;15623;53.986;11.676;2023-04-25T18:06:11;9.33;;;2.07;;
15218;SDS011;15623;53.986;11.676;2023-04-25T18:08:41;7.33;;;1.70;;
15218;SDS011;15623;53.986;11.676;2023-04-25T18:11:09;5.87;;;1.87;;
15218;SDS011;15623;53.986;11.676;2023-04-25T18:13:48;6.20;;;1.73;;
15218;SDS011;15623;53.986;11.676;2023-04-25T18:16:31;7.33;;;2.00;;
15218;SDS011;15623;53.986;11.676;2023-04-25T18:19:06;9.17;;;2.00;;
15218;SDS011;15623;53.986;11.676;2023-04-25T18:24:19;6.87;;;1.67;;
15218;SDS011;15623;53.986;11.676;2023-04-25T18:31:53;5.77;;;1.80;;
15218;SDS011;15623;53.986;11.676;2023-04-25T18:40:19;3.47;;;1.20;;
15218;SDS011;15623;53.986;11.676;2023-04-25T18:42:47;5.07;;;1.33;;
15218;SDS011;15623;53.986;11.676;2023-04-25T18:45:22;5.83;;;1.40;;
15218;SDS011;15623;53.986;11.676;2023-04-25T18:47:53;5.63;;;1.23;;
15218;SDS011;15623;53.986;11.676;2023-04-25T18:50:24;3.83;;;1.40;;
15218;SDS011;15623;53.986;11.676;2023-04-25T18:53:02;6.80;;;1.87;;
15218;SDS011;15623;53.986;11.676;2023-04-25T19:04:50;7.73;;;2.17;;
15218;SDS011;15623;53.986;11.676;2023-04-25T19:07:25;8.50;;;2.07;;
15218;SDS011;15623;53.986;11.676;2023-04-25T19:10:04;7.40;;;2.23;;
15218;SDS011;15623;53.986;11.676;2023-04-25T19:12:43;9.13;;;2.93;;
15218;SDS011;15623;53.986;11.676;2023-04-25T19:15:20;7.90;;;2.20;;
15218;SDS011;15623;53.986;11.676;2023-04-25T19:17:48;13.90;;;2.40;;
15218;SDS011;15623;53.986;11.676;2023-04-25T19:20:28;9.67;;;2.33;;
15218;SDS011;15623;53.986;11.676;2023-04-25T19:23:00;6.27;;;1.97;;
15218;SDS011;15623;53.986;11.676;2023-04-25T19:25:35;8.30;;;2.20;;
15218;SDS011;15623;53.986;11.676;2023-04-25T19:28:36;6.40;;;1.67;;
15218;SDS011;15623;53.986;11.676;2023-04-25T19:33:50;5.07;;;1.60;;
15218;SDS011;15623;53.986;11.676;2023-04-25T19:36:22;6.83;;;1.83;;
15218;SDS011;15623;53.986;11.676;2023-04-25T19:38:56;4.47;;;1.43;;
15218;SDS011;15623;53.986;11.676;2023-04-25T19:41:56;7.40;;;1.50;;
15218;SDS011;15623;53.986;11.676;2023-04-25T19:44:33;4.10;;;1.40;;
15218;SDS011;15623;53.986;11.676;2023-04-25T19:47:26;5.30;;;1.30;;
15218;SDS011;15623;53.986;11.676;2023-04-25T19:49:53;6.37;;;1.63;;
15218;SDS011;15623;53.986;11.676;2023-04-25T19:55:06;5.17;;;1.20;;
15218;SDS011;15623;53.986;11.676;2023-04-25T19:57:34;5.10;;;1.60;;
15218;SDS011;15623;53.986;11.676;2023-04-25T20:00:03;6.60;;;1.80;;
15218;SDS011;15623;53.986;11.676;2023-04-25T20:05:35;7.40;;;2.00;;
15218;SDS011;15623;53.986;11.676;2023-04-25T20:08:04;7.73;;;2.27;;
15218;SDS011;15623;53.986;11.676;2023-04-25T20:10:32;6.83;;;1.93;;
15218;SDS011;15623;53.986;11.676;2023-04-25T20:13:00;6.23;;;1.53;;
15218;SDS011;15623;53.986;11.676;2023-04-25T20:15:30;6.03;;;1.83;;
15218;SDS011;15623;53.986;11.676;2023-04-25T20:18:10;8.87;;;2.10;;
15218;SDS011;15623;53.986;11.676;2023-04-25T20:20:39;5.20;;;1.80;;
15218;SDS011;15623;53.986;11.676;2023-04-25T20:23:16;6.90;;;2.03;;
15218;SDS011;15623;53.986;11.676;2023-04-25T20:25:47;6.90;;;1.87;;
15218;SDS011;15623;53.986;11.676;2023-04-25T20:28:15;9.87;;;2.13;;
15218;SDS011;15623;53.986;11.676;2023-04-25T20:30:43;9.70;;;2.23;;
15218;SDS011;15623;53.986;11.676;2023-04-25T20:33:17;11.77;;;3.00;;
15218;SDS011;15623;53.986;11.676;2023-04-25T20:35:52;8.10;;;2.30;;
15218;SDS011;15623;53.986;11.676;2023-04-25T20:38:26;6.87;;;1.90;;
15218;SDS011;15623;53.986;11.676;2023-04-25T20:40:58;5.77;;;1.90;;
15218;SDS011;15623;53.986;11.676;2023-04-25T20:43:38;5.43;;;1.87;;
15218;SDS011;15623;53.986;11.676;2023-04-25T20:46:09;9.80;;;1.97;;
15218;SDS011;15623;53.986;11.676;2023-04-25T20:48:38;13.13;;;2.30;;
15218;SDS011;15623;53.986;11.676;2023-04-25T20:51:06;9.37;;;1.70;;
15218;SDS011;15623;53.986;11.676;2023-04-25T20:53:39;9.83;;;1.73;;
15218;SDS011;15623;53.986;11.676;2023-04-25T20:56:11;7.43;;;1.80;;
15218;SDS011;15623;53.986;11.676;2023-04-25T20:58:54;10.27;;;2.27;;
15218;SDS011;15623;53.986;11.676;2023-04-25T21:01:39;5.57;;;1.77;;
15218;SDS011;15623;53.986;11.676;2023-04-25T21:04:16;9.57;;;1.80;;
15218;SDS011;15623;53.986;11.676;2023-04-25T21:09:40;9.03;;;1.93;;
15218;SDS011;15623;53.986;11.676;2023-04-25T21:12:11;7.03;;;1.90;;
15218;SDS011;15623;53.986;11.676;2023-04-25T21:14:40;8.73;;;2.00;;
15218;SDS011;15623;53.986;11.676;2023-04-25T21:17:10;5.03;;;1.50;;
15218;SDS011;15623;53.986;11.676;2023-04-25T21:19:41;10.40;;;1.97;;
15218;SDS011;15623;53.986;11.676;2023-04-25T21:22:09;7.63;;;1.90;;
15218;SDS011;15623;53.986;11.676;2023-04-25T21:24:49;13.20;;;2.07;;
15218;SDS011;15623;53.986;11.676;2023-04-25T21:27:29;9.13;;;2.23;;
15218;SDS011;15623;53.986;11.676;2023-04-25T21:30:04;9.97;;;1.97;;
15218;SDS011;15623;53.986;11.676;2023-04-25T21:32:39;12.00;;;2.10;;
15218;SDS011;15623;53.986;11.676;2023-04-25T21:35:13;8.73;;;1.87;;
15218;SDS011;15623;53.986;11.676;2023-04-25T21:37:41;7.00;;;1.70;;
15218;SDS011;15623;53.986;11.676;2023-04-25T21:40:09;6.33;;;1.60;;
15218;SDS011;15623;53.986;11.676;2023-04-25T21:42:37;6.60;;;2.03;;
15218;SDS011;15623;53.986;11.676;2023-04-25T21:45:05;4.97;;;1.40;;
15218;SDS011;15623;53.986;11.676;2023-04-25T21:47:34;7.77;;;1.83;;
15218;SDS011;15623;53.986;11.676;2023-04-25T21:52:47;5.63;;;1.70;;
15218;SDS011;15623;53.986;11.676;2023-04-25T21:55:16;7.53;;;1.80;;
15218;SDS011;15623;53.986;11.676;2023-04-25T22:03:11;7.73;;;2.23;;
15218;SDS011;15623;53.986;11.676;2023-04-25T22:05:40;8.60;;;1.87;;
15218;SDS011;15623;53.986;11.676;2023-04-25T22:08:10;9.33;;;2.33;;
15218;SDS011;15623;53.986;11.676;2023-04-25T22:13:44;8.07;;;1.80;;
15218;SDS011;15623;53.986;11.676;2023-04-25T22:16:16;9.40;;;2.37;;
15218;SDS011;15623;53.986;11.676;2023-04-25T22:18:52;12.10;;;1.63;;
15218;SDS011;15623;53.986;11.676;2023-04-25T22:21:34;8.10;;;2.03;;
15218;SDS011;15623;53.986;11.676;2023-04-25T22:24:11;5.77;;;1.60;;
15218;SDS011;15623;53.986;11.676;2023-04-25T22:26:48;8.20;;;1.83;;
15218;SDS011;15623;53.986;11.676;2023-04-25T22:29:28;4.13;;;1.80;;
15218;SDS011;15623;53.986;11.676;2023-04-25T22:31:56;7.10;;;1.77;;
15218;SDS011;15623;53.986;11.676;2023-04-25T22:34:29;8.50;;;2.27;;
15218;SDS011;15623;53.986;11.676;2023-04-25T22:36:57;11.67;;;2.23;;
15218;SDS011;15623;53.986;11.676;2023-04-25T22:41:56;7.87;;;1.70;;
15218;SDS011;15623;53.986;11.676;2023-04-25T22:46:56;14.10;;;2.30;;
15218;SDS011;15623;53.986;11.676;2023-04-25T22:52:11;8.43;;;2.00;;
15218;SDS011;15623;53.986;11.676;2023-04-25T22:54:50;6.70;;;2.30;;
15218;SDS011;15623;53.986;11.676;2023-04-25T22:57:19;9.30;;;1.90;;
15218;SDS011;15623;53.986;11.676;2023-04-25T22:59:55;7.33;;;2.10;;
15218;SDS011;15623;53.986;11.676;2023-04-25T23:02:29;4.20;;;1.90;;
15218;SDS011;15623;53.986;11.676;2023-04-25T23:04:56;10.23;;;2.03;;
15218;SDS011;15623;53.986;11.676;2023-04-25T23:07:44;11.20;;;2.13;;
15218;SDS011;15623;53.986;11.676;2023-04-25T23:10:14;11.70;;;2.00;;
15218;SDS011;15623;53.986;11.676;2023-04-25T23:12:57;5.73;;;2.23;;
15218;SDS011;15623;53.986;11.676;2023-04-25T23:15:26;8.80;;;2.27;;
15218;SDS011;15623;53.986;11.676;2023-04-25T23:18:02;9.03;;;2.17;;
15218;SDS011;15623;53.986;11.676;2023-04-25T23:20:34;8.40;;;2.10;;
15218;SDS011;15623;53.986;11.676;2023-04-25T23:23:04;13.40;;;2.20;;
15218;SDS011;15623;53.986;11.676;2023-04-25T23:25:31;8.73;;;2.00;;
15218;SDS011;15623;53.986;11.676;2023-04-25T23:27:59;7.17;;;1.97;;
15218;SDS011;15623;53.986;11.676;2023-04-25T23:35:35;8.57;;;1.97;;